sensor_id;sensor_type;location;lat;lon;timestamp;P1;durP1;ratioP1;P2;durP2;ratioP2
1601;SDS011;794;48.592;9.634;2023-12-14T00:00:26;0.77;;;0.73;;
1601;SDS011;794;48.592;9.634;2023-12-14T00:02:53;2.07;;;0.83;;
1601;SDS011;794;48.592;9.634;2023-12-14T00:05:23;1.03;;;0.83;;
1601;SDS011;794;48.592;9.634;2023-12-14T00:07:51;1.43;;;0.97;;
1601;SDS011;794;48.592;9.634;2023-12-14T00:10:18;1.43;;;1.23;;
1601;SDS011;794;48.592;9.634;2023-12-14T00:12:45;1.23;;;0.90;;
1601;SDS011;794;48.592;9.634;2023-12-14T00:15:22;2.00;;;1.00;;
1601;SDS011;794;48.592;9.634;2023-12-14T00:17:49;2.20;;;0.70;;
1601;SDS011;794;48.592;9.634;2023-12-14T00:20:16;0.90;;;0.73;;
1601;SDS011;794;48.592;9.634;2023-12-14T00:22:44;1.77;;;1.20;;
1601;SDS011;794;48.592;9.634;2023-12-14T00:25:14;2.40;;;1.40;;
1601;SDS011;794;48.592;9.634;2023-12-14T00:27:41;1.20;;;1.10;;
1601;SDS011;794;48.592;9.634;2023-12-14T00:30:10;1.30;;;1.20;;
1601;SDS011;794;48.592;9.634;2023-12-14T00:32:41;2.27;;;1.83;;
1601;SDS011;794;48.592;9.634;2023-12-14T00:35:08;1.07;;;1.00;;
1601;SDS011;794;48.592;9.634;2023-12-14T00:37:35;0.93;;;0.70;;
1601;SDS011;794;48.592;9.634;2023-12-14T00:40:05;0.60;;;0.60;;
1601;SDS011;794;48.592;9.634;2023-12-14T00:42:38;1.60;;;0.50;;
1601;SDS011;794;48.592;9.634;2023-12-14T00:45:05;1.37;;;0.80;;
1601;SDS011;794;48.592;9.634;2023-12-14T00:47:33;1.50;;;0.70;;
1601;SDS011;794;48.592;9.634;2023-12-14T00:50:04;1.10;;;0.63;;
1601;SDS011;794;48.592;9.634;2023-12-14T00:52:33;1.00;;;0.70;;
1601;SDS011;794;48.592;9.634;2023-12-14T00:55:05;1.40;;;0.87;;
1601;SDS011;794;48.592;9.634;2023-12-14T00:57:36;0.60;;;0.60;;
1601;SDS011;794;48.592;9.634;2023-12-14T01:00:13;0.70;;;0.70;;
1601;SDS011;794;48.592;9.634;2023-12-14T01:02:43;0.60;;;0.60;;
1601;SDS011;794;48.592;9.634;2023-12-14T01:05:15;0.70;;;0.70;;
1601;SDS011;794;48.592;9.634;2023-12-14T01:07:43;2.10;;;0.50;;
1601;SDS011;794;48.592;9.634;2023-12-14T01:10:10;0.50;;;0.50;;
1601;SDS011;794;48.592;9.634;2023-12-14T01:12:37;0.93;;;0.70;;
1601;SDS011;794;48.592;9.634;2023-12-14T01:15:04;0.70;;;0.70;;
1601;SDS011;794;48.592;9.634;2023-12-14T01:17:32;0.70;;;0.60;;
1601;SDS011;794;48.592;9.634;2023-12-14T01:20:07;0.60;;;0.60;;
1601;SDS011;794;48.592;9.634;2023-12-14T01:22:40;0.93;;;0.60;;
1601;SDS011;794;48.592;9.634;2023-12-14T01:25:07;0.87;;;0.83;;
1601;SDS011;794;48.592;9.634;2023-12-14T01:27:34;1.43;;;0.70;;
1601;SDS011;794;48.592;9.634;2023-12-14T01:30:03;0.50;;;0.50;;
1601;SDS011;794;48.592;9.634;2023-12-14T01:32:31;2.20;;;0.80;;
1601;SDS011;794;48.592;9.634;2023-12-14T01:34:58;2.00;;;0.77;;
1601;SDS011;794;48.592;9.634;2023-12-14T01:37:27;1.57;;;0.87;;
1601;SDS011;794;48.592;9.634;2023-12-14T01:39:56;0.80;;;0.80;;
1601;SDS011;794;48.592;9.634;2023-12-14T01:42:23;1.73;;;1.17;;
1601;SDS011;794;48.592;9.634;2023-12-14T01:44:53;1.20;;;0.80;;
1601;SDS011;794;48.592;9.634;2023-12-14T01:47:20;1.10;;;0.80;;
1601;SDS011;794;48.592;9.634;2023-12-14T01:49:47;1.30;;;0.90;;
1601;SDS011;794;48.592;9.634;2023-12-14T01:52:14;0.80;;;0.80;;
1601;SDS011;794;48.592;9.634;2023-12-14T01:54:41;1.67;;;0.80;;
1601;SDS011;794;48.592;9.634;2023-12-14T01:57:13;3.23;;;0.90;;
1601;SDS011;794;48.592;9.634;2023-12-14T01:59:40;0.80;;;0.80;;
1601;SDS011;794;48.592;9.634;2023-12-14T02:02:07;2.20;;;0.80;;
1601;SDS011;794;48.592;9.634;2023-12-14T02:04:39;1.10;;;1.10;;
1601;SDS011;794;48.592;9.634;2023-12-14T02:07:06;2.37;;;0.90;;
1601;SDS011;794;48.592;9.634;2023-12-14T02:09:33;2.10;;;0.80;;
1601;SDS011;794;48.592;9.634;2023-12-14T02:12:00;1.63;;;1.07;;
1601;SDS011;794;48.592;9.634;2023-12-14T02:14:29;1.50;;;0.80;;
1601;SDS011;794;48.592;9.634;2023-12-14T02:16:56;1.20;;;0.87;;
1601;SDS011;794;48.592;9.634;2023-12-14T02:19:25;1.20;;;0.80;;
1601;SDS011;794;48.592;9.634;2023-12-14T02:21:55;1.70;;;0.80;;
1601;SDS011;794;48.592;9.634;2023-12-14T02:24:28;1.20;;;1.10;;
1601;SDS011;794;48.592;9.634;2023-12-14T02:26:56;1.73;;;1.17;;
1601;SDS011;794;48.592;9.634;2023-12-14T02:29:26;1.37;;;1.00;;
1601;SDS011;794;48.592;9.634;2023-12-14T02:31:53;5.40;;;1.17;;
1601;SDS011;794;48.592;9.634;2023-12-14T02:34:22;2.33;;;1.10;;
1601;SDS011;794;48.592;9.634;2023-12-14T02:36:50;2.40;;;1.10;;
1601;SDS011;794;48.592;9.634;2023-12-14T02:39:19;2.37;;;1.07;;
1601;SDS011;794;48.592;9.634;2023-12-14T02:41:47;1.30;;;0.83;;
1601;SDS011;794;48.592;9.634;2023-12-14T02:44:16;0.80;;;0.80;;
1601;SDS011;794;48.592;9.634;2023-12-14T02:46:43;1.07;;;0.97;;
1601;SDS011;794;48.592;9.634;2023-12-14T02:49:10;3.60;;;1.03;;
1601;SDS011;794;48.592;9.634;2023-12-14T02:51:40;0.90;;;0.80;;
1601;SDS011;794;48.592;9.634;2023-12-14T02:54:07;1.20;;;1.10;;
1601;SDS011;794;48.592;9.634;2023-12-14T02:56:37;0.90;;;0.63;;
1601;SDS011;794;48.592;9.634;2023-12-14T02:59:05;1.00;;;0.90;;
1601;SDS011;794;48.592;9.634;2023-12-14T03:01:33;2.40;;;0.93;;
1601;SDS011;794;48.592;9.634;2023-12-14T03:03:59;0.80;;;0.80;;
1601;SDS011;794;48.592;9.634;2023-12-14T03:06:27;1.73;;;0.93;;
1601;SDS011;794;48.592;9.634;2023-12-14T03:08:54;0.90;;;0.90;;
1601;SDS011;794;48.592;9.634;2023-12-14T03:11:21;0.77;;;0.77;;
1601;SDS011;794;48.592;9.634;2023-12-14T03:13:50;1.43;;;0.90;;
1601;SDS011;794;48.592;9.634;2023-12-14T03:16:23;1.57;;;0.80;;
1601;SDS011;794;48.592;9.634;2023-12-14T03:18:50;1.00;;;0.80;;
1601;SDS011;794;48.592;9.634;2023-12-14T03:21:18;1.87;;;0.80;;
1601;SDS011;794;48.592;9.634;2023-12-14T03:23:45;0.80;;;0.80;;
1601;SDS011;794;48.592;9.634;2023-12-14T03:26:15;1.10;;;0.83;;
1601;SDS011;794;48.592;9.634;2023-12-14T03:28:42;1.03;;;0.73;;
1601;SDS011;794;48.592;9.634;2023-12-14T03:31:15;0.80;;;0.80;;
1601;SDS011;794;48.592;9.634;2023-12-14T03:33:47;1.63;;;0.60;;
1601;SDS011;794;48.592;9.634;2023-12-14T03:36:20;2.40;;;0.63;;
1601;SDS011;794;48.592;9.634;2023-12-14T03:38:51;1.10;;;0.73;;
1601;SDS011;794;48.592;9.634;2023-12-14T03:41:18;0.90;;;0.80;;
1601;SDS011;794;48.592;9.634;2023-12-14T03:43:45;3.10;;;1.23;;
1601;SDS011;794;48.592;9.634;2023-12-14T03:46:14;0.70;;;0.60;;
1601;SDS011;794;48.592;9.634;2023-12-14T03:48:43;2.10;;;1.43;;
1601;SDS011;794;48.592;9.634;2023-12-14T03:51:17;0.73;;;0.73;;
1601;SDS011;794;48.592;9.634;2023-12-14T03:53:46;1.43;;;1.00;;
1601;SDS011;794;48.592;9.634;2023-12-14T03:56:19;0.80;;;0.80;;
1601;SDS011;794;48.592;9.634;2023-12-14T03:58:46;0.80;;;0.70;;
1601;SDS011;794;48.592;9.634;2023-12-14T04:01:17;2.07;;;1.00;;
1601;SDS011;794;48.592;9.634;2023-12-14T04:03:47;0.80;;;0.80;;
1601;SDS011;794;48.592;9.634;2023-12-14T04:06:14;2.73;;;1.00;;
1601;SDS011;794;48.592;9.634;2023-12-14T04:08:49;2.17;;;0.90;;
1601;SDS011;794;48.592;9.634;2023-12-14T04:11:57;2.40;;;0.87;;
1601;SDS011;794;48.592;9.634;2023-12-14T04:15:43;1.03;;;1.00;;
1601;SDS011;794;48.592;9.634;2023-12-14T04:17:35;1.00;;;1.00;;
1601;SDS011;794;48.592;9.634;2023-12-14T04:20:12;2.63;;;1.00;;
1601;SDS011;794;48.592;9.634;2023-12-14T04:26:05;1.80;;;1.10;;
1601;SDS011;794;48.592;9.634;2023-12-14T04:28:42;1.73;;;1.13;;
1601;SDS011;794;48.592;9.634;2023-12-14T04:31:12;1.00;;;1.00;;
1601;SDS011;794;48.592;9.634;2023-12-14T04:33:43;2.50;;;1.10;;
1601;SDS011;794;48.592;9.634;2023-12-14T04:36:12;1.40;;;1.30;;
1601;SDS011;794;48.592;9.634;2023-12-14T04:38:39;1.97;;;1.27;;
1601;SDS011;794;48.592;9.634;2023-12-14T04:41:07;2.43;;;1.50;;
1601;SDS011;794;48.592;9.634;2023-12-14T04:43:38;1.23;;;1.23;;
1601;SDS011;794;48.592;9.634;2023-12-14T04:46:05;1.87;;;1.67;;
1601;SDS011;794;48.592;9.634;2023-12-14T04:48:33;2.20;;;1.63;;
1601;SDS011;794;48.592;9.634;2023-12-14T04:51:03;2.07;;;1.40;;
1601;SDS011;794;48.592;9.634;2023-12-14T04:53:32;3.73;;;1.53;;
1601;SDS011;794;48.592;9.634;2023-12-14T04:56:00;1.33;;;1.23;;
1601;SDS011;794;48.592;9.634;2023-12-14T04:58:27;1.43;;;1.33;;
1601;SDS011;794;48.592;9.634;2023-12-14T05:00:54;1.70;;;1.60;;
1601;SDS011;794;48.592;9.634;2023-12-14T05:03:21;1.40;;;1.30;;
1601;SDS011;794;48.592;9.634;2023-12-14T05:05:51;1.80;;;1.63;;
1601;SDS011;794;48.592;9.634;2023-12-14T05:08:19;1.70;;;1.60;;
1601;SDS011;794;48.592;9.634;2023-12-14T05:10:52;1.77;;;1.67;;
1601;SDS011;794;48.592;9.634;2023-12-14T05:13:19;1.83;;;1.50;;
1601;SDS011;794;48.592;9.634;2023-12-14T05:15:48;1.70;;;1.60;;
1601;SDS011;794;48.592;9.634;2023-12-14T05:18:17;1.30;;;1.20;;
1601;SDS011;794;48.592;9.634;2023-12-14T05:20:44;2.07;;;1.87;;
1601;SDS011;794;48.592;9.634;2023-12-14T05:23:12;3.20;;;1.93;;
1601;SDS011;794;48.592;9.634;2023-12-14T05:25:45;1.60;;;1.50;;
1601;SDS011;794;48.592;9.634;2023-12-14T05:28:14;1.63;;;1.53;;
1601;SDS011;794;48.592;9.634;2023-12-14T05:30:41;1.80;;;1.70;;
1601;SDS011;794;48.592;9.634;2023-12-14T05:33:08;2.30;;;2.10;;
1601;SDS011;794;48.592;9.634;2023-12-14T05:35:35;2.07;;;1.87;;
1601;SDS011;794;48.592;9.634;2023-12-14T05:38:02;2.03;;;1.93;;
1601;SDS011;794;48.592;9.634;2023-12-14T05:40:30;1.80;;;1.70;;
1601;SDS011;794;48.592;9.634;2023-12-14T05:43:02;7.63;;;2.30;;
1601;SDS011;794;48.592;9.634;2023-12-14T05:45:33;2.47;;;2.37;;
1601;SDS011;794;48.592;9.634;2023-12-14T05:48:00;2.37;;;2.17;;
1601;SDS011;794;48.592;9.634;2023-12-14T05:50:29;2.60;;;2.40;;
1601;SDS011;794;48.592;9.634;2023-12-14T05:53:01;2.63;;;2.43;;
1601;SDS011;794;48.592;9.634;2023-12-14T05:55:28;2.53;;;2.40;;
1601;SDS011;794;48.592;9.634;2023-12-14T05:57:55;3.30;;;3.10;;
1601;SDS011;794;48.592;9.634;2023-12-14T06:00:22;3.37;;;2.53;;
1601;SDS011;794;48.592;9.634;2023-12-14T06:02:53;4.27;;;2.60;;
1601;SDS011;794;48.592;9.634;2023-12-14T06:05:19;3.60;;;3.07;;
1601;SDS011;794;48.592;9.634;2023-12-14T06:07:47;2.40;;;2.20;;
1601;SDS011;794;48.592;9.634;2023-12-14T06:10:14;1.90;;;1.80;;
1601;SDS011;794;48.592;9.634;2023-12-14T06:12:41;3.23;;;2.50;;
1601;SDS011;794;48.592;9.634;2023-12-14T06:15:08;4.20;;;2.70;;
1601;SDS011;794;48.592;9.634;2023-12-14T06:17:39;2.13;;;2.00;;
1601;SDS011;794;48.592;9.634;2023-12-14T06:20:09;2.60;;;2.40;;
1601;SDS011;794;48.592;9.634;2023-12-14T06:22:48;3.00;;;2.80;;
1601;SDS011;794;48.592;9.634;2023-12-14T06:25:15;3.70;;;3.47;;
1601;SDS011;794;48.592;9.634;2023-12-14T06:27:42;3.57;;;3.37;;
1601;SDS011;794;48.592;9.634;2023-12-14T06:30:10;3.20;;;2.90;;
1601;SDS011;794;48.592;9.634;2023-12-14T06:32:39;2.90;;;2.70;;
1601;SDS011;794;48.592;9.634;2023-12-14T06:35:06;2.30;;;2.17;;
1601;SDS011;794;48.592;9.634;2023-12-14T06:37:35;1.60;;;1.50;;
1601;SDS011;794;48.592;9.634;2023-12-14T06:40:04;1.30;;;1.20;;
1601;SDS011;794;48.592;9.634;2023-12-14T06:42:32;1.70;;;1.60;;
1601;SDS011;794;48.592;9.634;2023-12-14T06:44:59;1.77;;;1.40;;
1601;SDS011;794;48.592;9.634;2023-12-14T06:47:28;1.70;;;1.60;;
1601;SDS011;794;48.592;9.634;2023-12-14T06:49:55;1.87;;;1.77;;
1601;SDS011;794;48.592;9.634;2023-12-14T06:52:23;1.40;;;1.30;;
1601;SDS011;794;48.592;9.634;2023-12-14T06:54:51;2.03;;;1.87;;
1601;SDS011;794;48.592;9.634;2023-12-14T06:57:18;2.50;;;2.30;;
1601;SDS011;794;48.592;9.634;2023-12-14T06:59:52;2.10;;;1.90;;
1601;SDS011;794;48.592;9.634;2023-12-14T07:02:19;1.80;;;1.70;;
1601;SDS011;794;48.592;9.634;2023-12-14T07:04:46;2.30;;;2.10;;
1601;SDS011;794;48.592;9.634;2023-12-14T07:07:14;2.75;;;2.08;;
1601;SDS011;794;48.592;9.634;2023-12-14T07:09:42;2.60;;;2.40;;
1601;SDS011;794;48.592;9.634;2023-12-14T07:12:15;2.03;;;1.80;;
1601;SDS011;794;48.592;9.634;2023-12-14T07:14:43;2.00;;;1.80;;
1601;SDS011;794;48.592;9.634;2023-12-14T07:17:10;1.80;;;1.70;;
1601;SDS011;794;48.592;9.634;2023-12-14T07:19:37;1.50;;;1.40;;
1601;SDS011;794;48.592;9.634;2023-12-14T07:22:04;1.43;;;1.33;;
1601;SDS011;794;48.592;9.634;2023-12-14T07:24:30;2.40;;;1.37;;
1601;SDS011;794;48.592;9.634;2023-12-14T07:26:57;1.07;;;1.07;;
1601;SDS011;794;48.592;9.634;2023-12-14T07:29:28;0.83;;;0.83;;
1601;SDS011;794;48.592;9.634;2023-12-14T07:31:55;0.87;;;0.83;;
1601;SDS011;794;48.592;9.634;2023-12-14T07:34:22;1.20;;;1.10;;
1601;SDS011;794;48.592;9.634;2023-12-14T07:36:49;0.77;;;0.77;;
1601;SDS011;794;48.592;9.634;2023-12-14T07:39:17;1.00;;;1.00;;
1601;SDS011;794;48.592;9.634;2023-12-14T07:41:44;1.27;;;0.80;;
1601;SDS011;794;48.592;9.634;2023-12-14T07:44:13;0.70;;;0.70;;
1601;SDS011;794;48.592;9.634;2023-12-14T07:46:41;0.90;;;0.90;;
1601;SDS011;794;48.592;9.634;2023-12-14T07:49:08;1.43;;;1.33;;
1601;SDS011;794;48.592;9.634;2023-12-14T07:51:35;0.80;;;0.80;;
1601;SDS011;794;48.592;9.634;2023-12-14T07:54:05;1.10;;;0.60;;
1601;SDS011;794;48.592;9.634;2023-12-14T07:56:33;1.70;;;0.93;;
1601;SDS011;794;48.592;9.634;2023-12-14T07:59:00;0.67;;;0.67;;
1601;SDS011;794;48.592;9.634;2023-12-14T08:01:31;1.07;;;0.60;;
1601;SDS011;794;48.592;9.634;2023-12-14T08:04:07;2.20;;;0.80;;
1601;SDS011;794;48.592;9.634;2023-12-14T08:06:45;1.10;;;1.00;;
1601;SDS011;794;48.592;9.634;2023-12-14T08:09:14;0.90;;;0.90;;
1601;SDS011;794;48.592;9.634;2023-12-14T08:11:42;0.83;;;0.83;;
1601;SDS011;794;48.592;9.634;2023-12-14T08:14:12;1.00;;;0.90;;
1601;SDS011;794;48.592;9.634;2023-12-14T08:16:39;2.20;;;0.97;;
1601;SDS011;794;48.592;9.634;2023-12-14T08:19:10;1.40;;;1.30;;
1601;SDS011;794;48.592;9.634;2023-12-14T08:21:39;1.00;;;1.00;;
1601;SDS011;794;48.592;9.634;2023-12-14T08:24:08;1.43;;;1.10;;
1601;SDS011;794;48.592;9.634;2023-12-14T08:26:35;1.27;;;1.17;;
1601;SDS011;794;48.592;9.634;2023-12-14T08:29:02;2.20;;;1.63;;
1601;SDS011;794;48.592;9.634;2023-12-14T08:31:29;1.70;;;1.60;;
1601;SDS011;794;48.592;9.634;2023-12-14T08:33:59;2.07;;;1.97;;
1601;SDS011;794;48.592;9.634;2023-12-14T08:36:30;1.30;;;1.20;;
1601;SDS011;794;48.592;9.634;2023-12-14T08:38:59;1.50;;;1.40;;
1601;SDS011;794;48.592;9.634;2023-12-14T08:41:34;4.10;;;1.93;;
1601;SDS011;794;48.592;9.634;2023-12-14T08:44:03;1.17;;;1.10;;
1601;SDS011;794;48.592;9.634;2023-12-14T08:46:38;1.73;;;1.63;;
1601;SDS011;794;48.592;9.634;2023-12-14T08:49:05;2.03;;;1.93;;
1601;SDS011;794;48.592;9.634;2023-12-14T08:51:38;2.40;;;2.20;;
1601;SDS011;794;48.592;9.634;2023-12-14T08:54:06;2.23;;;1.43;;
1601;SDS011;794;48.592;9.634;2023-12-14T08:56:34;2.63;;;2.40;;
1601;SDS011;794;48.592;9.634;2023-12-14T08:59:05;2.57;;;2.33;;
1601;SDS011;794;48.592;9.634;2023-12-14T09:01:32;3.60;;;2.07;;
1601;SDS011;794;48.592;9.634;2023-12-14T09:04:01;1.83;;;1.73;;
1601;SDS011;794;48.592;9.634;2023-12-14T09:06:30;2.30;;;2.10;;
1601;SDS011;794;48.592;9.634;2023-12-14T09:09:03;1.80;;;1.70;;
1601;SDS011;794;48.592;9.634;2023-12-14T09:11:34;1.53;;;1.43;;
1601;SDS011;794;48.592;9.634;2023-12-14T09:14:05;2.00;;;1.90;;
1601;SDS011;794;48.592;9.634;2023-12-14T09:16:32;2.90;;;2.20;;
1601;SDS011;794;48.592;9.634;2023-12-14T09:18:59;2.30;;;2.10;;
1601;SDS011;794;48.592;9.634;2023-12-14T09:21:28;2.40;;;2.20;;
1601;SDS011;794;48.592;9.634;2023-12-14T09:23:57;2.40;;;2.20;;
1601;SDS011;794;48.592;9.634;2023-12-14T09:26:26;2.00;;;1.90;;
1601;SDS011;794;48.592;9.634;2023-12-14T09:28:56;2.17;;;1.97;;
1601;SDS011;794;48.592;9.634;2023-12-14T09:31:23;4.33;;;2.37;;
1601;SDS011;794;48.592;9.634;2023-12-14T09:33:50;2.67;;;2.47;;
1601;SDS011;794;48.592;9.634;2023-12-14T09:36:22;1.73;;;1.63;;
1601;SDS011;794;48.592;9.634;2023-12-14T09:38:49;1.70;;;1.60;;
1601;SDS011;794;48.592;9.634;2023-12-14T09:41:16;2.60;;;2.37;;
1601;SDS011;794;48.592;9.634;2023-12-14T09:43:45;2.30;;;2.10;;
1601;SDS011;794;48.592;9.634;2023-12-14T09:46:12;3.00;;;2.70;;
1601;SDS011;794;48.592;9.634;2023-12-14T09:48:43;3.13;;;2.93;;
1601;SDS011;794;48.592;9.634;2023-12-14T09:51:12;5.67;;;4.60;;
1601;SDS011;794;48.592;9.634;2023-12-14T09:53:39;4.03;;;3.33;;
1601;SDS011;794;48.592;9.634;2023-12-14T09:56:06;3.13;;;2.43;;
1601;SDS011;794;48.592;9.634;2023-12-14T09:58:33;2.53;;;2.33;;
1601;SDS011;794;48.592;9.634;2023-12-14T10:01:02;7.27;;;6.67;;
1601;SDS011;794;48.592;9.634;2023-12-14T10:03:46;2.93;;;2.73;;
1601;SDS011;794;48.592;9.634;2023-12-14T10:06:18;3.50;;;2.13;;
1601;SDS011;794;48.592;9.634;2023-12-14T10:08:53;3.20;;;2.97;;
1601;SDS011;794;48.592;9.634;2023-12-14T10:11:21;5.10;;;3.63;;
1601;SDS011;794;48.592;9.634;2023-12-14T10:13:53;2.97;;;2.50;;
1601;SDS011;794;48.592;9.634;2023-12-14T10:16:33;5.63;;;3.13;;
1601;SDS011;794;48.592;9.634;2023-12-14T10:19:01;4.33;;;3.10;;
1601;SDS011;794;48.592;9.634;2023-12-14T10:21:28;2.70;;;2.50;;
1601;SDS011;794;48.592;9.634;2023-12-14T10:23:57;3.23;;;2.90;;
1601;SDS011;794;48.592;9.634;2023-12-14T10:26:25;2.57;;;2.20;;
1601;SDS011;794;48.592;9.634;2023-12-14T10:28:57;2.93;;;2.40;;
1601;SDS011;794;48.592;9.634;2023-12-14T10:31:33;3.20;;;3.00;;
1601;SDS011;794;48.592;9.634;2023-12-14T10:34:03;3.70;;;2.80;;
1601;SDS011;794;48.592;9.634;2023-12-14T10:36:32;9.03;;;2.70;;
1601;SDS011;794;48.592;9.634;2023-12-14T10:39:00;2.30;;;2.10;;
1601;SDS011;794;48.592;9.634;2023-12-14T10:41:33;2.50;;;2.30;;
1601;SDS011;794;48.592;9.634;2023-12-14T10:44:00;2.20;;;2.07;;
1601;SDS011;794;48.592;9.634;2023-12-14T10:46:32;1.97;;;1.80;;
1601;SDS011;794;48.592;9.634;2023-12-14T10:49:05;4.43;;;1.97;;
1601;SDS011;794;48.592;9.634;2023-12-14T10:51:34;2.30;;;2.10;;
1601;SDS011;794;48.592;9.634;2023-12-14T10:54:02;2.40;;;2.20;;
1601;SDS011;794;48.592;9.634;2023-12-14T10:56:30;2.90;;;2.23;;
1601;SDS011;794;48.592;9.634;2023-12-14T10:58:59;2.50;;;2.30;;
1601;SDS011;794;48.592;9.634;2023-12-14T11:01:28;3.33;;;2.77;;
1601;SDS011;794;48.592;9.634;2023-12-14T11:04:01;2.97;;;2.77;;
1601;SDS011;794;48.592;9.634;2023-12-14T11:06:29;3.10;;;2.90;;
1601;SDS011;794;48.592;9.634;2023-12-14T11:08:59;2.80;;;2.60;;
1601;SDS011;794;48.592;9.634;2023-12-14T11:11:38;3.67;;;3.37;;
1601;SDS011;794;48.592;9.634;2023-12-14T11:14:10;3.10;;;2.80;;
1601;SDS011;794;48.592;9.634;2023-12-14T11:17:06;3.57;;;3.27;;
1601;SDS011;794;48.592;9.634;2023-12-14T11:20:03;3.90;;;3.50;;
1601;SDS011;794;48.592;9.634;2023-12-14T11:23:07;7.45;;;4.97;;
1601;SDS011;794;48.592;9.634;2023-12-14T11:25:43;4.00;;;3.50;;
1601;SDS011;794;48.592;9.634;2023-12-14T11:28:16;4.23;;;3.83;;
1601;SDS011;794;48.592;9.634;2023-12-14T11:30:47;3.60;;;2.90;;
1601;SDS011;794;48.592;9.634;2023-12-14T11:33:16;3.50;;;3.20;;
1601;SDS011;794;48.592;9.634;2023-12-14T11:35:58;5.53;;;4.70;;
1601;SDS011;794;48.592;9.634;2023-12-14T11:38:33;4.60;;;4.20;;
1601;SDS011;794;48.592;9.634;2023-12-14T11:41:10;3.83;;;3.50;;
1601;SDS011;794;48.592;9.634;2023-12-14T11:43:56;5.20;;;3.67;;
1601;SDS011;794;48.592;9.634;2023-12-14T11:46:30;4.30;;;4.00;;
1601;SDS011;794;48.592;9.634;2023-12-14T11:49:17;6.00;;;4.33;;
1601;SDS011;794;48.592;9.634;2023-12-14T11:51:56;4.07;;;3.67;;
1601;SDS011;794;48.592;9.634;2023-12-14T11:54:43;4.20;;;3.80;;
1601;SDS011;794;48.592;9.634;2023-12-14T12:03:46;4.10;;;3.70;;
1601;SDS011;794;48.592;9.634;2023-12-14T12:06:27;5.80;;;3.00;;
1601;SDS011;794;48.592;9.634;2023-12-14T12:12:38;4.20;;;3.20;;
1601;SDS011;794;48.592;9.634;2023-12-14T12:15:48;4.20;;;3.73;;
1601;SDS011;794;48.592;9.634;2023-12-14T12:18:16;14.30;;;11.83;;
1601;SDS011;794;48.592;9.634;2023-12-14T12:20:47;7.90;;;6.53;;
1601;SDS011;794;48.592;9.634;2023-12-14T12:23:14;5.53;;;4.40;;
1601;SDS011;794;48.592;9.634;2023-12-14T12:25:47;5.77;;;5.27;;
1601;SDS011;794;48.592;9.634;2023-12-14T12:28:16;3.63;;;3.00;;
1601;SDS011;794;48.592;9.634;2023-12-14T12:30:43;3.50;;;3.20;;
1601;SDS011;794;48.592;9.634;2023-12-14T12:33:16;3.40;;;2.77;;
1601;SDS011;794;48.592;9.634;2023-12-14T12:35:45;3.40;;;3.03;;
1601;SDS011;794;48.592;9.634;2023-12-14T12:38:17;3.60;;;3.30;;
1601;SDS011;794;48.592;9.634;2023-12-14T12:40:46;3.40;;;3.10;;
1601;SDS011;794;48.592;9.634;2023-12-14T12:43:13;3.73;;;2.87;;
1601;SDS011;794;48.592;9.634;2023-12-14T12:45:40;4.60;;;2.73;;
1601;SDS011;794;48.592;9.634;2023-12-14T12:48:09;4.03;;;3.10;;
1601;SDS011;794;48.592;9.634;2023-12-14T12:50:36;5.60;;;4.50;;
1601;SDS011;794;48.592;9.634;2023-12-14T12:53:03;3.83;;;3.53;;
1601;SDS011;794;48.592;9.634;2023-12-14T12:55:35;6.80;;;3.87;;
1601;SDS011;794;48.592;9.634;2023-12-14T12:58:12;4.03;;;3.73;;
1601;SDS011;794;48.592;9.634;2023-12-14T13:00:42;7.77;;;4.27;;
1601;SDS011;794;48.592;9.634;2023-12-14T13:03:11;8.13;;;5.07;;
1601;SDS011;794;48.592;9.634;2023-12-14T13:05:42;4.47;;;3.97;;
1601;SDS011;794;48.592;9.634;2023-12-14T13:08:15;5.10;;;4.53;;
1601;SDS011;794;48.592;9.634;2023-12-14T13:10:47;5.27;;;4.40;;
1601;SDS011;794;48.592;9.634;2023-12-14T13:13:21;9.40;;;5.93;;
1601;SDS011;794;48.592;9.634;2023-12-14T13:15:50;5.43;;;4.93;;
1601;SDS011;794;48.592;9.634;2023-12-14T13:18:37;5.70;;;4.93;;
1601;SDS011;794;48.592;9.634;2023-12-14T13:21:08;4.60;;;3.80;;
1601;SDS011;794;48.592;9.634;2023-12-14T13:23:37;9.23;;;4.93;;
1601;SDS011;794;48.592;9.634;2023-12-14T13:26:06;7.00;;;4.57;;
1601;SDS011;794;48.592;9.634;2023-12-14T13:28:37;4.97;;;4.47;;
1601;SDS011;794;48.592;9.634;2023-12-14T13:31:04;5.60;;;5.10;;
1601;SDS011;794;48.592;9.634;2023-12-14T13:33:44;7.10;;;4.70;;
1601;SDS011;794;48.592;9.634;2023-12-14T13:36:12;7.30;;;5.10;;
1601;SDS011;794;48.592;9.634;2023-12-14T13:38:55;9.77;;;5.07;;
1601;SDS011;794;48.592;9.634;2023-12-14T13:41:27;4.87;;;4.47;;
1601;SDS011;794;48.592;9.634;2023-12-14T13:44:00;3.70;;;3.20;;
1601;SDS011;794;48.592;9.634;2023-12-14T13:46:33;3.43;;;3.13;;
1601;SDS011;794;48.592;9.634;2023-12-14T13:49:05;7.67;;;4.33;;
1601;SDS011;794;48.592;9.634;2023-12-14T13:51:36;4.70;;;3.87;;
1601;SDS011;794;48.592;9.634;2023-12-14T13:54:03;4.93;;;4.33;;
1601;SDS011;794;48.592;9.634;2023-12-14T13:56:33;5.30;;;4.80;;
1601;SDS011;794;48.592;9.634;2023-12-14T13:59:15;6.07;;;5.47;;
1601;SDS011;794;48.592;9.634;2023-12-14T14:01:48;4.80;;;4.40;;
1601;SDS011;794;48.592;9.634;2023-12-14T14:04:16;5.60;;;4.23;;
1601;SDS011;794;48.592;9.634;2023-12-14T14:06:45;5.27;;;4.43;;
1601;SDS011;794;48.592;9.634;2023-12-14T14:09:12;7.33;;;5.23;;
1601;SDS011;794;48.592;9.634;2023-12-14T14:11:50;4.50;;;3.57;;
1601;SDS011;794;48.592;9.634;2023-12-14T14:14:19;5.60;;;5.10;;
1601;SDS011;794;48.592;9.634;2023-12-14T14:16:48;4.20;;;3.90;;
1601;SDS011;794;48.592;9.634;2023-12-14T14:19:17;5.63;;;4.77;;
1601;SDS011;794;48.592;9.634;2023-12-14T14:21:47;5.53;;;4.70;;
1601;SDS011;794;48.592;9.634;2023-12-14T14:24:14;6.53;;;5.60;;
1601;SDS011;794;48.592;9.634;2023-12-14T14:26:41;5.40;;;4.90;;
1601;SDS011;794;48.592;9.634;2023-12-14T14:29:10;5.13;;;4.23;;
1601;SDS011;794;48.592;9.634;2023-12-14T14:31:40;6.50;;;4.40;;
1601;SDS011;794;48.592;9.634;2023-12-14T14:34:08;3.80;;;3.40;;
1601;SDS011;794;48.592;9.634;2023-12-14T14:36:41;4.17;;;3.40;;
1601;SDS011;794;48.592;9.634;2023-12-14T14:39:16;4.00;;;3.20;;
1601;SDS011;794;48.592;9.634;2023-12-14T14:41:49;3.60;;;2.50;;
1601;SDS011;794;48.592;9.634;2023-12-14T14:44:17;3.17;;;2.40;;
1601;SDS011;794;48.592;9.634;2023-12-14T14:46:46;3.97;;;2.93;;
1601;SDS011;794;48.592;9.634;2023-12-14T14:49:26;5.23;;;4.77;;
1601;SDS011;794;48.592;9.634;2023-12-14T14:52:07;3.30;;;3.10;;
1601;SDS011;794;48.592;9.634;2023-12-14T14:54:37;4.27;;;3.20;;
1601;SDS011;794;48.592;9.634;2023-12-14T14:57:26;4.00;;;3.00;;
1601;SDS011;794;48.592;9.634;2023-12-14T14:59:57;3.17;;;2.30;;
1601;SDS011;794;48.592;9.634;2023-12-14T15:05:23;4.23;;;3.67;;
1601;SDS011;794;48.592;9.634;2023-12-14T15:07:57;20.40;;;18.30;;
1601;SDS011;794;48.592;9.634;2023-12-14T15:10:40;20.50;;;18.40;;
1601;SDS011;794;48.592;9.634;2023-12-14T15:13:10;7.57;;;6.63;;
1601;SDS011;794;48.592;9.634;2023-12-14T15:15:40;6.13;;;5.67;;
1601;SDS011;794;48.592;9.634;2023-12-14T15:20:58;2.40;;;2.20;;
1601;SDS011;794;48.592;9.634;2023-12-14T15:23:35;22.17;;;20.33;;
1601;SDS011;794;48.592;9.634;2023-12-14T15:26:06;4.23;;;3.50;;
1601;SDS011;794;48.592;9.634;2023-12-14T15:28:41;3.33;;;3.03;;
1601;SDS011;794;48.592;9.634;2023-12-14T15:31:27;4.13;;;3.80;;
1601;SDS011;794;48.592;9.634;2023-12-14T15:34:11;2.93;;;2.73;;
1601;SDS011;794;48.592;9.634;2023-12-14T15:36:40;4.53;;;4.20;;
1601;SDS011;794;48.592;9.634;2023-12-14T15:39:08;3.90;;;3.57;;
1601;SDS011;794;48.592;9.634;2023-12-14T15:41:40;10.97;;;9.27;;
1601;SDS011;794;48.592;9.634;2023-12-14T15:44:07;15.80;;;11.47;;
1601;SDS011;794;48.592;9.634;2023-12-14T15:46:40;39.83;;;21.13;;
1601;SDS011;794;48.592;9.634;2023-12-14T15:49:12;17.20;;;11.87;;
1601;SDS011;794;48.592;9.634;2023-12-14T15:51:39;11.33;;;10.07;;
1601;SDS011;794;48.592;9.634;2023-12-14T15:54:06;7.13;;;6.43;;
1601;SDS011;794;48.592;9.634;2023-12-14T15:56:34;5.50;;;4.27;;
1601;SDS011;794;48.592;9.634;2023-12-14T15:59:01;4.33;;;4.00;;
1601;SDS011;794;48.592;9.634;2023-12-14T16:01:30;4.90;;;2.57;;
1601;SDS011;794;48.592;9.634;2023-12-14T16:03:57;4.40;;;1.80;;
1601;SDS011;794;48.592;9.634;2023-12-14T16:06:33;2.70;;;2.50;;
1601;SDS011;794;48.592;9.634;2023-12-14T16:09:00;2.90;;;2.60;;